createdAt,value
2022-10-09T00:00:32.552Z,7.76
2022-10-09T00:01:32.561Z,7.81
2022-10-09T00:02:32.643Z,7.77
2022-10-09T00:03:35.311Z,7.76
2022-10-09T00:04:32.519Z,7.71
2022-10-09T00:05:33.359Z,7.71
2022-10-09T00:06:32.656Z,7.69
2022-10-09T00:07:32.474Z,7.70
2022-10-09T00:08:33.306Z,7.74
2022-10-09T00:09:32.837Z,7.74
2022-10-09T00:10:32.447Z,7.74
2022-10-09T00:11:35.308Z,7.71
2022-10-09T00:12:32.420Z,7.70
2022-10-09T00:13:32.428Z,7.63
2022-10-09T00:14:32.418Z,7.58
2022-10-09T00:15:33.327Z,7.57
2022-10-09T00:16:32.465Z,7.60
2022-10-09T00:17:35.304Z,7.67
2022-10-09T00:18:33.307Z,7.63
2022-10-09T00:19:33.314Z,7.58
2022-10-09T00:20:32.347Z,7.54
2022-10-09T00:21:32.347Z,7.50
2022-10-09T00:22:34.808Z,7.48
2022-10-09T00:23:32.294Z,7.54
2022-10-09T00:24:32.291Z,7.48
2022-10-09T00:25:32.334Z,7.44
2022-10-09T00:26:32.272Z,7.44
2022-10-09T00:27:32.253Z,7.41
2022-10-09T00:28:37.721Z,7.41
2022-10-09T00:29:33.343Z,7.37
2022-10-09T00:30:32.298Z,7.34
2022-10-09T00:31:32.253Z,7.39
2022-10-09T00:32:32.198Z,7.33
2022-10-09T00:33:34.806Z,7.37
2022-10-09T00:34:32.809Z,7.37
2022-10-09T00:35:32.167Z,7.32
2022-10-09T00:36:32.176Z,7.34
2022-10-09T00:37:32.166Z,7.37
2022-10-09T00:38:32.131Z,7.39
2022-10-09T00:39:34.806Z,7.39
2022-10-09T00:40:32.115Z,7.37
2022-10-09T00:41:32.098Z,7.41
2022-10-09T00:42:32.093Z,7.42
2022-10-09T00:43:32.087Z,7.41
2022-10-09T00:44:32.058Z,7.41
2022-10-09T00:45:34.812Z,7.39
2022-10-09T00:46:32.080Z,7.36
2022-10-09T00:47:32.830Z,7.39
2022-10-09T00:48:33.302Z,7.41
2022-10-09T00:49:32.013Z,7.36
2022-10-09T00:50:32.007Z,7.36
2022-10-09T00:51:31.987Z,7.26
2022-10-09T00:52:32.004Z,7.21
2022-10-09T00:53:31.962Z,7.12
2022-10-09T00:54:31.996Z,7.18
2022-10-09T00:55:32.802Z,7.12
2022-10-09T00:56:31.936Z,7.14
2022-10-09T00:57:31.924Z,7.11
2022-10-09T00:58:31.932Z,7.14
2022-10-09T00:59:31.896Z,7.18
2022-10-09T01:00:31.905Z,7.14
2022-10-09T01:01:34.858Z,7.18
2022-10-09T01:02:31.914Z,7.15
2022-10-09T01:03:34.835Z,7.18
2022-10-09T01:04:31.841Z,7.12
2022-10-09T01:05:31.832Z,7.23
2022-10-09T01:06:31.842Z,7.14
2022-10-09T01:07:32.309Z,7.15
2022-10-09T01:08:31.792Z,7.18
2022-10-09T01:09:31.787Z,7.18
2022-10-09T01:10:31.769Z,7.16
2022-10-09T01:11:31.768Z,7.24
2022-10-09T01:12:31.784Z,7.14
2022-10-09T01:13:34.305Z,7.15
2022-10-09T01:14:31.741Z,7.16
2022-10-09T01:15:31.755Z,7.18
2022-10-09T01:16:31.707Z,7.18
2022-10-09T01:17:32.763Z,7.16
2022-10-09T01:18:31.686Z,7.16
2022-10-09T01:19:32.009Z,7.15
2022-10-09T01:20:31.661Z,7.18
2022-10-09T01:21:31.654Z,7.09
2022-10-09T01:22:31.649Z,7.12
2022-10-09T01:23:31.663Z,7.09
2022-10-09T01:24:34.320Z,7.16
2022-10-09T01:25:32.358Z,7.11
2022-10-09T01:26:31.592Z,7.12
2022-10-09T01:27:31.606Z,7.12
2022-10-09T01:28:31.632Z,6.94
2022-10-09T01:29:31.841Z,6.94
2022-10-09T01:30:31.565Z,7.07
2022-10-09T01:31:31.644Z,6.99
2022-10-09T01:32:31.536Z,6.93
2022-10-09T01:33:34.313Z,6.99
2022-10-09T01:34:31.543Z,7.07
2022-10-09T01:35:31.688Z,7.07
2022-10-09T01:36:31.490Z,6.99
2022-10-09T01:37:31.506Z,6.94
2022-10-09T01:38:32.310Z,7.00
2022-10-09T01:39:39.344Z,6.93
2022-10-09T01:40:31.448Z,6.91
2022-10-09T01:41:31.446Z,6.81
2022-10-09T01:42:31.844Z,6.81
2022-10-09T01:43:31.415Z,6.89
2022-10-09T01:44:46.310Z,6.89
2022-10-09T01:45:38.316Z,6.89
2022-10-09T01:46:32.432Z,6.83
2022-10-09T01:47:31.840Z,6.96
2022-10-09T01:48:32.308Z,6.90
2022-10-09T01:49:32.316Z,6.81
2022-10-09T01:50:32.304Z,6.81
2022-10-09T01:51:31.471Z,6.82
2022-10-09T01:52:31.346Z,6.78
2022-10-09T01:53:33.803Z,6.79
2022-10-09T01:54:31.813Z,6.75
2022-10-09T01:55:31.813Z,6.76
2022-10-09T01:56:33.813Z,6.75
2022-10-09T01:57:31.346Z,6.63
2022-10-09T01:58:31.260Z,6.63
2022-10-09T01:59:33.804Z,6.68
2022-10-09T02:00:31.251Z,6.58
2022-10-09T02:01:31.333Z,6.61
2022-10-09T02:02:52.826Z,6.58
2022-10-09T02:03:31.204Z,6.71
2022-10-09T02:04:33.821Z,6.64
2022-10-09T02:05:31.178Z,6.68
2022-10-09T02:06:31.819Z,6.61
2022-10-09T02:07:31.367Z,6.65
2022-10-09T02:08:31.338Z,6.68
2022-10-09T02:09:31.137Z,6.63
2022-10-09T02:10:31.133Z,6.68
2022-10-09T02:11:31.144Z,6.61
2022-10-09T02:12:31.105Z,6.65
2022-10-09T02:13:31.091Z,6.68
2022-10-09T02:14:31.342Z,6.60
2022-10-09T02:15:31.248Z,6.63
2022-10-09T02:16:36.125Z,6.61
2022-10-09T02:17:32.811Z,6.43
2022-10-09T02:18:31.810Z,6.50
2022-10-09T02:19:31.057Z,6.55
2022-10-09T02:20:31.058Z,6.45
2022-10-09T02:21:31.017Z,6.45
2022-10-09T02:22:31.004Z,6.50
2022-10-09T02:23:31.006Z,6.48
2022-10-09T02:24:30.997Z,6.45
2022-10-09T02:25:31.817Z,6.46
2022-10-09T02:26:31.836Z,6.33
2022-10-09T02:27:30.955Z,6.32
2022-10-09T02:28:30.993Z,6.28
2022-10-09T02:29:31.808Z,6.30
2022-10-09T02:30:30.895Z,6.30
2022-10-09T02:31:30.976Z,6.32
2022-10-09T02:32:30.894Z,6.28
2022-10-09T02:33:30.880Z,6.25
2022-10-09T02:34:30.865Z,6.27
2022-10-09T02:35:52.818Z,6.27
2022-10-09T02:36:31.804Z,6.25
2022-10-09T02:37:30.862Z,6.33
2022-10-09T02:38:37.835Z,6.27
2022-10-09T02:39:30.829Z,6.27
2022-10-09T02:40:30.799Z,6.28
2022-10-09T02:41:30.803Z,6.24
2022-10-09T02:42:30.837Z,6.17
2022-10-09T02:43:30.775Z,6.13
2022-10-09T02:44:31.329Z,6.13
2022-10-09T02:45:33.307Z,6.17
2022-10-09T02:46:30.845Z,6.17
2022-10-09T02:47:30.723Z,6.17
2022-10-09T02:48:30.842Z,6.14
2022-10-09T02:49:30.702Z,6.14
2022-10-09T02:50:33.316Z,6.08
2022-10-09T02:51:33.306Z,6.17
2022-10-09T02:52:51.970Z,6.17
2022-10-09T02:53:30.688Z,6.19
2022-10-09T02:54:45.330Z,6.16
2022-10-09T02:55:30.652Z,6.17
2022-10-09T02:56:30.630Z,6.14
2022-10-09T02:57:30.625Z,6.13
2022-10-09T02:58:30.613Z,6.14
2022-10-09T02:59:33.309Z,6.17
2022-10-09T03:00:30.610Z,6.17
2022-10-09T03:01:30.867Z,6.08
2022-10-09T03:02:30.736Z,6.11
2022-10-09T03:03:37.320Z,6.03
2022-10-09T03:04:31.316Z,6.10
2022-10-09T03:05:31.315Z,6.08
2022-10-09T03:06:30.539Z,6.02
2022-10-09T03:07:30.515Z,6.10
2022-10-09T03:08:30.505Z,6.05
2022-10-09T03:09:33.689Z,6.05
2022-10-09T03:10:30.491Z,6.05
2022-10-09T03:11:30.482Z,6.01
2022-10-09T03:12:30.451Z,5.98
2022-10-09T03:13:30.455Z,6.01
2022-10-09T03:14:30.439Z,6.02
2022-10-09T03:15:31.473Z,5.96
2022-10-09T03:16:30.496Z,5.88
2022-10-09T03:17:30.436Z,5.88
2022-10-09T03:18:45.307Z,5.93
2022-10-09T03:19:32.327Z,5.93
2022-10-09T03:20:30.368Z,5.98
2022-10-09T03:21:30.355Z,6.01
2022-10-09T03:22:31.320Z,6.03
2022-10-09T03:23:30.357Z,6.02
2022-10-09T03:24:30.340Z,6.06
2022-10-09T03:25:30.306Z,6.06
2022-10-09T03:26:30.340Z,6.06
2022-10-09T03:27:30.322Z,6.08
2022-10-09T03:28:32.845Z,6.08
2022-10-09T03:29:30.280Z,6.02
2022-10-09T03:30:30.264Z,6.03
2022-10-09T03:32:31.365Z,5.99
2022-10-09T03:33:30.237Z,5.93
2022-10-09T03:34:30.218Z,5.95
2022-10-09T03:35:30.211Z,6.01
2022-10-09T03:36:30.209Z,5.93
2022-10-09T03:37:30.343Z,5.88
2022-10-09T03:38:30.176Z,5.83
2022-10-09T03:39:31.879Z,5.88
2022-10-09T03:40:36.814Z,5.84
2022-10-09T03:41:30.150Z,5.80
2022-10-09T03:42:30.164Z,5.80
2022-10-09T03:43:31.170Z,5.78
2022-10-09T03:44:30.113Z,5.70
2022-10-09T03:45:30.109Z,5.74
2022-10-09T03:46:30.184Z,5.74
2022-10-09T03:47:30.337Z,5.78
2022-10-09T03:48:30.079Z,5.78
2022-10-09T03:49:30.062Z,5.77
2022-10-09T03:50:30.044Z,5.73
2022-10-09T03:51:30.050Z,5.77
2022-10-09T03:52:30.346Z,5.74
2022-10-09T03:53:30.351Z,5.87
2022-10-09T03:54:30.007Z,5.75
2022-10-09T03:55:30.332Z,5.78
2022-10-09T03:56:30.813Z,5.75
2022-10-09T03:57:32.926Z,5.75
2022-10-09T03:58:29.977Z,5.77
2022-10-09T03:59:29.956Z,5.75
2022-10-09T04:00:29.968Z,5.78
2022-10-09T04:01:29.927Z,5.83
2022-10-09T04:02:29.972Z,5.78
2022-10-09T04:03:30.813Z,5.92
2022-10-09T04:04:29.893Z,5.87
2022-10-09T04:05:29.917Z,5.87
2022-10-09T04:06:32.804Z,5.90
2022-10-09T04:07:30.816Z,5.88
2022-10-09T04:08:29.851Z,5.80
2022-10-09T04:09:29.848Z,5.84
2022-10-09T04:10:29.838Z,5.85
2022-10-09T04:11:29.843Z,5.80
2022-10-09T04:12:30.309Z,5.78
2022-10-09T04:13:29.817Z,5.73
2022-10-09T04:14:44.315Z,5.83
2022-10-09T04:15:29.839Z,5.80
2022-10-09T04:16:29.878Z,5.87
2022-10-09T04:17:29.752Z,5.70
2022-10-09T04:18:29.744Z,5.83
2022-10-09T04:19:29.733Z,5.78
2022-10-09T04:20:29.744Z,5.75
2022-10-09T04:21:29.705Z,5.74
2022-10-09T04:22:29.705Z,5.77
2022-10-09T04:23:29.836Z,5.70
2022-10-09T04:24:29.682Z,5.66
2022-10-09T04:25:29.664Z,5.66
2022-10-09T04:26:29.846Z,5.66
2022-10-09T04:27:29.638Z,5.63
2022-10-09T04:28:29.728Z,5.63
2022-10-09T04:29:36.324Z,5.63
2022-10-09T04:30:29.615Z,5.60
2022-10-09T04:31:29.702Z,5.63
2022-10-09T04:32:29.841Z,5.59
2022-10-09T04:33:29.581Z,5.62
2022-10-09T04:34:32.314Z,5.55
2022-10-09T04:35:29.562Z,5.58
2022-10-09T04:36:30.308Z,5.56
2022-10-09T04:37:30.315Z,5.52
2022-10-09T04:38:29.539Z,5.60
2022-10-09T04:39:29.512Z,5.55
2022-10-09T04:40:29.840Z,5.60
2022-10-09T04:41:33.526Z,5.49
2022-10-09T04:42:30.481Z,5.59
2022-10-09T04:43:30.323Z,5.56
2022-10-09T04:44:31.355Z,5.58
2022-10-09T04:45:29.524Z,5.48
2022-10-09T04:46:30.314Z,5.62
2022-10-09T04:47:32.304Z,5.56
2022-10-09T04:48:29.423Z,5.49
2022-10-09T04:49:29.839Z,5.55
2022-10-09T04:50:29.398Z,5.56
2022-10-09T04:51:29.383Z,5.65
2022-10-09T04:52:29.390Z,5.59
2022-10-09T04:53:29.355Z,5.65
2022-10-09T04:54:29.372Z,5.52
2022-10-09T04:55:29.354Z,5.48
2022-10-09T04:56:30.311Z,5.58
2022-10-09T04:57:29.322Z,5.51
2022-10-09T04:58:29.314Z,5.58
2022-10-09T04:59:29.809Z,5.47
2022-10-09T05:00:29.343Z,5.55
2022-10-09T05:01:32.075Z,5.45
2022-10-09T05:02:30.401Z,5.40
2022-10-09T05:03:29.261Z,5.38
2022-10-09T05:04:29.242Z,5.41
2022-10-09T05:05:29.227Z,5.33
2022-10-09T05:06:29.806Z,5.37
2022-10-09T05:07:29.223Z,5.40
2022-10-09T05:08:29.208Z,5.41
2022-10-09T05:09:29.195Z,5.41
2022-10-09T05:10:29.189Z,5.44
2022-10-09T05:11:29.186Z,5.45
2022-10-09T05:12:29.170Z,5.45
2022-10-09T05:13:29.146Z,5.47
2022-10-09T05:14:29.156Z,5.49
2022-10-09T05:15:29.137Z,5.44
2022-10-09T05:16:29.226Z,5.45
2022-10-09T05:17:29.233Z,5.48
2022-10-09T05:18:29.117Z,5.45
2022-10-09T05:19:29.077Z,5.38
2022-10-09T05:20:30.115Z,5.41
2022-10-09T05:21:29.812Z,5.42
2022-10-09T05:22:29.053Z,5.35
2022-10-09T05:23:29.374Z,5.49
2022-10-09T05:24:29.339Z,5.42
2022-10-09T05:25:29.015Z,5.40
2022-10-09T05:26:29.000Z,5.45
2022-10-09T05:27:28.995Z,5.47
2022-10-09T05:28:29.840Z,5.48
2022-10-09T05:29:28.990Z,5.48
2022-10-09T05:30:31.809Z,5.47
2022-10-09T05:31:29.322Z,5.49
2022-10-09T05:32:29.811Z,5.45
2022-10-09T05:33:28.950Z,5.42
2022-10-09T05:34:28.931Z,5.47
2022-10-09T05:35:28.919Z,5.51
2022-10-09T05:36:28.899Z,5.37
2022-10-09T05:37:29.837Z,5.33
2022-10-09T05:38:28.881Z,5.35
2022-10-09T05:39:29.814Z,5.42
2022-10-09T05:40:29.822Z,5.42
2022-10-09T05:41:28.832Z,5.37
2022-10-09T05:42:28.849Z,5.44
2022-10-09T05:43:28.818Z,5.35
2022-10-09T05:44:28.810Z,5.37
2022-10-09T05:45:28.901Z,5.42
2022-10-09T05:46:31.317Z,5.37
2022-10-09T05:47:29.308Z,5.33
2022-10-09T05:48:28.764Z,5.38
2022-10-09T05:49:28.803Z,5.23
2022-10-09T05:50:28.840Z,5.26
2022-10-09T05:51:28.733Z,5.32
2022-10-09T05:52:28.833Z,5.32
2022-10-09T05:53:28.718Z,5.32
2022-10-09T05:54:28.826Z,5.32
2022-10-09T05:55:28.709Z,5.29
2022-10-09T05:56:28.679Z,5.38
2022-10-09T05:57:28.664Z,5.35
2022-10-09T05:58:28.650Z,5.35
2022-10-09T05:59:28.652Z,5.37
2022-10-09T06:00:28.946Z,5.27
2022-10-09T06:01:29.373Z,5.40
2022-10-09T06:02:28.697Z,5.35
2022-10-09T06:03:31.306Z,5.30
2022-10-09T06:04:28.612Z,5.32
2022-10-09T06:05:29.323Z,5.24
2022-10-09T06:06:29.312Z,5.37
2022-10-09T06:07:28.556Z,5.40
2022-10-09T06:08:28.563Z,5.27
2022-10-09T06:09:28.552Z,5.24
2022-10-09T06:10:32.376Z,5.15
2022-10-09T06:11:28.518Z,5.14
2022-10-09T06:12:28.506Z,5.19
2022-10-09T06:13:28.494Z,5.14
2022-10-09T06:14:28.503Z,5.12
2022-10-09T06:15:31.316Z,5.17
2022-10-09T06:16:29.355Z,5.24
2022-10-09T06:17:28.448Z,5.32
2022-10-09T06:18:28.433Z,5.47
2022-10-09T06:19:29.307Z,5.41
2022-10-09T06:20:28.466Z,5.47
2022-10-09T06:21:28.425Z,5.52
2022-10-09T06:22:28.397Z,5.49
2022-10-09T06:23:28.385Z,5.48
2022-10-09T06:24:29.515Z,5.45
2022-10-09T06:25:28.366Z,5.60
2022-10-09T06:26:28.371Z,5.59
2022-10-09T06:27:28.349Z,5.45
2022-10-09T06:28:32.467Z,5.44
2022-10-09T06:29:28.320Z,5.58
2022-10-09T06:30:29.458Z,5.60
2022-10-09T06:31:28.392Z,5.59
2022-10-09T06:32:28.341Z,5.63
2022-10-09T06:33:34.815Z,5.66
2022-10-09T06:34:28.269Z,5.70
2022-10-09T06:35:28.270Z,5.65
2022-10-09T06:36:30.823Z,5.70
2022-10-09T06:37:28.252Z,5.74
2022-10-09T06:38:28.224Z,5.84
2022-10-09T06:39:30.810Z,5.80
2022-10-09T06:40:28.805Z,5.92
2022-10-09T06:41:30.817Z,5.90
2022-10-09T06:42:28.182Z,5.92
2022-10-09T06:43:28.195Z,5.96
2022-10-09T06:44:28.151Z,5.87
2022-10-09T06:45:28.149Z,6.03
2022-10-09T06:46:42.803Z,5.99
2022-10-09T06:47:28.144Z,6.02
2022-10-09T06:48:28.114Z,5.95
2022-10-09T06:49:30.823Z,6.02
2022-10-09T06:50:28.098Z,6.03
2022-10-09T06:51:28.072Z,6.08
2022-10-09T06:52:28.083Z,6.03
2022-10-09T06:53:28.337Z,6.11
2022-10-09T06:54:28.065Z,6.19
2022-10-09T06:55:28.884Z,6.24
2022-10-09T06:56:28.032Z,6.16
2022-10-09T06:57:28.013Z,6.28
2022-10-09T06:58:28.004Z,6.21
2022-10-09T06:59:28.330Z,6.33
2022-10-09T07:00:27.984Z,6.33
2022-10-09T07:01:28.001Z,6.35
2022-10-09T07:02:29.046Z,6.32
2022-10-09T07:03:27.941Z,6.28
2022-10-09T07:04:27.962Z,6.40
2022-10-09T07:05:27.926Z,6.45
2022-10-09T07:06:27.918Z,6.50
2022-10-09T07:07:28.835Z,6.51
2022-10-09T07:08:27.909Z,6.50
2022-10-09T07:09:27.880Z,6.60
2022-10-09T07:10:27.869Z,6.57
2022-10-09T07:11:27.858Z,6.64
2022-10-09T07:12:27.861Z,6.60
2022-10-09T07:13:27.852Z,6.69
2022-10-09T07:14:42.812Z,6.76
2022-10-09T07:15:27.923Z,6.72
2022-10-09T07:16:27.935Z,6.71
2022-10-09T07:17:27.825Z,6.75
2022-10-09T07:18:27.787Z,6.78
2022-10-09T07:19:27.785Z,6.81
2022-10-09T07:20:27.762Z,6.94
2022-10-09T07:21:28.319Z,6.93
2022-10-09T07:22:27.833Z,6.94
2022-10-09T07:23:27.743Z,6.96
2022-10-09T07:24:27.749Z,6.96
2022-10-09T07:25:27.716Z,7.07
2022-10-09T07:26:27.700Z,7.09
2022-10-09T07:27:27.691Z,7.08
2022-10-09T07:28:27.772Z,7.15
2022-10-09T07:29:28.314Z,7.12
2022-10-09T07:30:27.675Z,7.18
2022-10-09T07:31:27.665Z,7.21
2022-10-09T07:32:27.629Z,7.18
2022-10-09T07:33:27.632Z,7.23
2022-10-09T07:34:27.612Z,7.24
2022-10-09T07:35:27.625Z,7.32
2022-10-09T07:36:27.599Z,7.39
2022-10-09T07:37:27.586Z,7.36
2022-10-09T07:38:27.600Z,7.41
2022-10-09T07:39:27.581Z,7.48
2022-10-09T07:40:27.572Z,7.42
2022-10-09T07:41:27.560Z,7.41
2022-10-09T07:42:30.330Z,7.51
2022-10-09T07:43:30.311Z,7.62
2022-10-09T07:44:27.525Z,7.48
2022-10-09T07:45:27.505Z,7.54
2022-10-09T07:46:32.129Z,7.60
2022-10-09T07:47:28.465Z,7.67
2022-10-09T07:48:27.466Z,7.74
2022-10-09T07:49:38.335Z,7.74
2022-10-09T07:50:27.452Z,7.71
2022-10-09T07:51:27.430Z,7.79
2022-10-09T07:52:27.423Z,7.81
2022-10-09T07:53:27.413Z,7.84
2022-10-09T07:54:30.303Z,7.88
2022-10-09T07:55:27.408Z,7.86
2022-10-09T07:56:27.393Z,7.89
2022-10-09T07:57:27.376Z,7.95
2022-10-09T07:58:27.350Z,7.89
2022-10-09T07:59:27.341Z,7.89
2022-10-09T08:00:30.306Z,7.99
2022-10-09T08:01:28.414Z,8.00
2022-10-09T08:02:27.361Z,8.02
2022-10-09T08:03:29.803Z,8.09
2022-10-09T08:04:27.297Z,8.07
2022-10-09T08:05:27.276Z,8.03
2022-10-09T08:06:27.272Z,8.14
2022-10-09T08:07:31.335Z,8.10
2022-10-09T08:08:28.342Z,8.27
2022-10-09T08:09:27.227Z,8.36
2022-10-09T08:10:27.201Z,8.36
2022-10-09T08:11:27.209Z,8.42
2022-10-09T08:12:30.346Z,8.42
2022-10-09T08:13:27.206Z,8.37
2022-10-09T08:14:27.182Z,8.40
2022-10-09T08:15:27.182Z,8.47
2022-10-09T08:16:27.166Z,8.50
2022-10-09T08:17:27.179Z,8.54
2022-10-09T08:18:27.127Z,8.52
2022-10-09T08:19:27.131Z,8.52
2022-10-09T08:20:27.110Z,8.58
2022-10-09T08:21:27.105Z,8.60
2022-10-09T08:22:27.109Z,8.64
2022-10-09T08:23:27.090Z,8.64
2022-10-09T08:24:27.067Z,8.64
2022-10-09T08:25:27.067Z,8.70
2022-10-09T08:26:27.044Z,8.63
2022-10-09T08:27:27.045Z,8.79
2022-10-09T08:28:27.071Z,8.79
2022-10-09T08:29:27.028Z,8.86
2022-10-09T08:30:27.006Z,8.79
2022-10-09T08:31:27.078Z,8.86
2022-10-09T08:32:26.982Z,8.91
2022-10-09T08:33:26.965Z,8.94
2022-10-09T08:34:26.975Z,8.96
2022-10-09T08:35:29.904Z,9.15
2022-10-09T08:36:27.938Z,9.08
2022-10-09T08:37:26.919Z,9.13
2022-10-09T08:38:46.287Z,9.15
2022-10-09T08:39:27.914Z,9.19
2022-10-09T08:40:26.898Z,9.19
2022-10-09T08:41:27.805Z,9.30
2022-10-09T08:42:26.873Z,9.27
2022-10-09T08:43:26.851Z,9.37
2022-10-09T08:44:26.880Z,9.37
2022-10-09T08:45:29.805Z,9.42
2022-10-09T08:46:27.894Z,9.52
2022-10-09T08:47:26.825Z,9.49
2022-10-09T08:48:29.307Z,9.65
2022-10-09T08:49:26.786Z,9.67
2022-10-09T08:50:26.815Z,9.68
2022-10-09T08:51:26.772Z,9.60
2022-10-09T08:52:27.310Z,9.75
2022-10-09T08:53:26.840Z,9.85
2022-10-09T08:54:27.313Z,9.81
2022-10-09T08:55:26.744Z,9.86
2022-10-09T08:56:26.738Z,9.88
2022-10-09T08:57:27.307Z,9.95
2022-10-09T08:58:26.701Z,10.04
2022-10-09T08:59:27.308Z,10.01
2022-10-09T09:00:26.706Z,10.07
2022-10-09T09:01:26.949Z,10.06
2022-10-09T09:02:26.705Z,10.20
2022-10-09T09:03:26.657Z,10.20
2022-10-09T09:04:26.630Z,10.36
2022-10-09T09:05:26.612Z,10.26
2022-10-09T09:06:26.842Z,10.39
2022-10-09T09:07:27.310Z,10.49
2022-10-09T09:08:27.313Z,10.49
2022-10-09T09:09:26.606Z,10.49
2022-10-09T09:10:33.311Z,10.55
2022-10-09T09:11:26.554Z,10.66
2022-10-09T09:12:27.308Z,10.60
2022-10-09T09:13:26.559Z,10.70
2022-10-09T09:14:27.313Z,10.75
2022-10-09T09:15:26.538Z,10.69
2022-10-09T09:16:27.378Z,10.88
2022-10-09T09:17:27.320Z,10.93
2022-10-09T09:18:27.311Z,10.99
2022-10-09T09:19:26.485Z,11.16
2022-10-09T09:20:26.474Z,11.09
2022-10-09T09:21:27.316Z,11.19
2022-10-09T09:22:27.317Z,11.24
2022-10-09T09:23:27.309Z,11.27
2022-10-09T09:24:27.310Z,11.39
2022-10-09T09:25:26.424Z,11.45
2022-10-09T09:26:26.838Z,11.41
2022-10-09T09:27:27.310Z,11.54
2022-10-09T09:28:27.346Z,11.67
2022-10-09T09:29:26.351Z,11.64
2022-10-09T09:30:27.308Z,11.82
2022-10-09T09:31:26.400Z,11.85
2022-10-09T09:32:26.359Z,11.84
2022-10-09T09:33:26.820Z,11.87
2022-10-09T09:34:32.805Z,11.94
2022-10-09T09:35:26.289Z,11.98
2022-10-09T09:36:26.346Z,12.01
2022-10-09T09:37:26.806Z,12.05
2022-10-09T09:38:26.817Z,12.01
2022-10-09T09:40:30.882Z,12.08
2022-10-09T09:40:46.818Z,12.19
2022-10-09T09:41:27.236Z,12.22
2022-10-09T09:42:26.218Z,12.26
2022-10-09T09:43:26.216Z,12.26
2022-10-09T09:44:26.193Z,12.31
2022-10-09T09:45:26.195Z,12.34
2022-10-09T09:46:26.271Z,12.40
2022-10-09T09:47:26.202Z,12.33
2022-10-09T09:48:26.239Z,12.44
2022-10-09T09:49:26.148Z,12.54
2022-10-09T09:50:46.024Z,12.51
2022-10-09T09:51:28.829Z,12.70
2022-10-09T09:52:26.818Z,12.73
2022-10-09T09:53:26.105Z,12.81
2022-10-09T09:54:26.077Z,12.87
2022-10-09T09:55:28.809Z,12.95
2022-10-09T09:56:26.057Z,12.94
2022-10-09T09:57:26.070Z,12.95
2022-10-09T09:58:26.817Z,12.96
2022-10-09T09:59:27.315Z,12.91
2022-10-09T10:00:26.007Z,13.03
2022-10-09T10:01:26.976Z,13.06
2022-10-09T10:02:26.104Z,13.07
2022-10-09T10:03:25.990Z,13.13
2022-10-09T10:04:31.358Z,13.16
2022-10-09T10:05:25.959Z,13.22
2022-10-09T10:06:25.948Z,13.31
2022-10-09T10:07:26.809Z,13.29
2022-10-09T10:08:28.812Z,13.35
2022-10-09T10:09:26.356Z,13.47
2022-10-09T10:10:26.967Z,13.53
2022-10-09T10:11:26.815Z,13.55
2022-10-09T10:12:26.818Z,13.62
2022-10-09T10:13:26.820Z,13.61
2022-10-09T10:14:26.339Z,13.61
2022-10-09T10:15:28.814Z,13.61
2022-10-09T10:16:26.888Z,13.59
2022-10-09T10:17:28.819Z,13.63
2022-10-09T10:18:28.316Z,13.76
2022-10-09T10:19:28.317Z,13.88
2022-10-09T10:20:30.860Z,13.98
2022-10-09T10:21:40.321Z,14.06
2022-10-09T10:22:28.316Z,14.06
2022-10-09T10:23:32.316Z,14.09
2022-10-09T10:24:32.317Z,14.19
2022-10-09T10:25:28.317Z,14.20
2022-10-09T10:26:28.844Z,14.24
2022-10-09T10:27:28.331Z,14.27
2022-10-09T10:28:34.346Z,14.41
2022-10-09T10:29:28.314Z,14.39
2022-10-09T10:30:40.319Z,14.39
2022-10-09T10:31:28.344Z,14.49
2022-10-09T10:32:46.678Z,14.52
2022-10-09T10:33:28.317Z,14.36
2022-10-09T10:34:27.328Z,14.48
2022-10-09T10:35:28.322Z,14.54
2022-10-09T10:36:28.332Z,14.53
2022-10-09T10:37:28.346Z,14.52
2022-10-09T10:38:28.318Z,14.63
2022-10-09T10:39:25.613Z,14.63
2022-10-09T10:40:25.569Z,14.61
2022-10-09T10:41:28.328Z,14.64
2022-10-09T10:42:25.553Z,14.72
2022-10-09T10:43:25.551Z,14.69
2022-10-09T10:44:27.483Z,14.78
2022-10-09T10:45:28.325Z,14.72
2022-10-09T10:46:25.536Z,14.75
2022-10-09T10:47:28.355Z,14.74
2022-10-09T10:48:25.838Z,14.87
2022-10-09T10:49:32.889Z,14.97
2022-10-09T10:50:29.323Z,14.93
2022-10-09T10:51:28.316Z,14.98
2022-10-09T10:52:28.340Z,15.00
2022-10-09T10:53:25.456Z,15.13
2022-10-09T10:54:32.324Z,15.23
2022-10-09T10:55:28.327Z,15.18
2022-10-09T10:56:25.404Z,15.34
2022-10-09T10:57:26.314Z,15.34
2022-10-09T10:58:28.853Z,15.30
2022-10-09T10:59:25.398Z,15.44
2022-10-09T11:00:25.362Z,15.53
2022-10-09T11:01:25.460Z,15.49
2022-10-09T11:02:25.351Z,15.53
2022-10-09T11:03:25.433Z,15.64
2022-10-09T11:04:25.318Z,15.77
2022-10-09T11:05:25.827Z,15.76
2022-10-09T11:06:31.825Z,15.74
2022-10-09T11:07:25.823Z,15.77
2022-10-09T11:08:39.841Z,15.95
2022-10-09T11:09:25.350Z,15.96
2022-10-09T11:10:25.278Z,15.92
2022-10-09T11:11:25.248Z,15.95
2022-10-09T11:12:46.672Z,16.01
2022-10-09T11:13:26.825Z,16.07
2022-10-09T11:14:25.212Z,16.01
2022-10-09T11:15:25.195Z,16.04
2022-10-09T11:16:25.306Z,16.16
2022-10-09T11:17:25.167Z,16.30
2022-10-09T11:18:25.177Z,16.26
2022-10-09T11:19:25.167Z,16.29
2022-10-09T11:20:25.348Z,16.34
2022-10-09T11:21:25.152Z,16.52
2022-10-09T11:22:25.117Z,16.47
2022-10-09T11:23:31.825Z,16.54
2022-10-09T11:24:25.133Z,16.69
2022-10-09T11:25:31.826Z,16.60
2022-10-09T11:26:25.099Z,16.55
2022-10-09T11:27:25.826Z,16.54
2022-10-09T11:28:25.911Z,16.54
2022-10-09T11:29:25.827Z,16.52
2022-10-09T11:30:25.042Z,16.59
2022-10-09T11:31:25.112Z,16.78
2022-10-09T11:32:25.838Z,16.90
2022-10-09T11:33:25.830Z,16.92
2022-10-09T11:34:31.819Z,16.96
2022-10-09T11:35:26.859Z,16.98
2022-10-09T11:36:24.960Z,17.06
2022-10-09T11:37:24.972Z,16.96
2022-10-09T11:38:25.354Z,17.12
2022-10-09T11:39:27.925Z,17.14
2022-10-09T11:40:25.826Z,17.07
2022-10-09T11:41:25.820Z,17.15
2022-10-09T11:42:25.833Z,17.33
2022-10-09T11:43:25.818Z,17.39
2022-10-09T11:44:25.364Z,17.45
2022-10-09T11:45:24.888Z,17.43
2022-10-09T11:46:27.821Z,17.40
2022-10-09T11:47:24.849Z,17.55
2022-10-09T11:48:24.820Z,17.45
2022-10-09T11:49:24.845Z,17.51
2022-10-09T11:50:24.832Z,17.43
2022-10-09T11:51:24.817Z,17.63
2022-10-09T11:52:25.326Z,17.55
2022-10-09T11:53:24.798Z,17.62
2022-10-09T11:54:24.783Z,17.65
2022-10-09T11:55:31.353Z,17.42
2022-10-09T11:56:45.751Z,17.38
2022-10-09T11:57:24.732Z,17.54
2022-10-09T11:58:24.724Z,17.63
2022-10-09T11:59:24.731Z,17.62
2022-10-09T12:00:24.706Z,17.51
2022-10-09T12:01:24.766Z,17.57
2022-10-09T12:02:24.706Z,17.66
2022-10-09T12:03:31.327Z,17.74
2022-10-09T12:04:50.092Z,17.68
2022-10-09T12:05:25.865Z,17.45
2022-10-09T12:06:27.326Z,17.53
2022-10-09T12:07:24.718Z,17.47
2022-10-09T12:08:24.622Z,17.66
2022-10-09T12:09:25.327Z,17.62
2022-10-09T12:10:25.341Z,17.53
2022-10-09T12:11:24.604Z,17.76
2022-10-09T12:12:24.565Z,17.87
2022-10-09T12:13:24.577Z,17.95
2022-10-09T12:14:31.337Z,17.98
2022-10-09T12:15:24.533Z,17.99
2022-10-09T12:16:24.571Z,17.99
2022-10-09T12:17:24.523Z,18.11
2022-10-09T12:18:24.525Z,18.19
2022-10-09T12:19:24.521Z,18.16
2022-10-09T12:20:24.477Z,18.17
2022-10-09T12:21:24.474Z,18.29
2022-10-09T12:22:24.863Z,18.36
2022-10-09T12:23:27.214Z,18.41
2022-10-09T12:24:31.329Z,18.53
2022-10-09T12:25:24.467Z,18.36
2022-10-09T12:26:27.347Z,18.46
2022-10-09T12:27:24.409Z,18.62
2022-10-09T12:28:24.467Z,18.56
2022-10-09T12:29:34.856Z,18.41
2022-10-09T12:30:25.366Z,18.53
2022-10-09T12:31:25.368Z,18.65
2022-10-09T12:32:25.328Z,18.68
2022-10-09T12:33:25.328Z,18.47
2022-10-09T12:34:24.840Z,18.54
2022-10-09T12:35:24.371Z,18.47
2022-10-09T12:36:24.313Z,18.29
2022-10-09T12:37:24.357Z,18.42
2022-10-09T12:38:24.281Z,18.38
2022-10-09T12:39:24.295Z,18.59
2022-10-09T12:40:24.268Z,18.64
2022-10-09T12:41:24.275Z,18.75
2022-10-09T12:42:26.969Z,18.75
2022-10-09T12:43:24.239Z,18.84
2022-10-09T12:44:24.218Z,18.86
2022-10-09T12:45:24.223Z,18.66
2022-10-09T12:46:24.476Z,18.65
2022-10-09T12:47:24.200Z,18.75
2022-10-09T12:48:24.182Z,18.84
2022-10-09T12:49:24.165Z,18.64
2022-10-09T12:50:24.845Z,18.72
2022-10-09T12:51:24.150Z,18.74
2022-10-09T12:52:24.365Z,18.94
2022-10-09T12:53:25.153Z,19.09
2022-10-09T12:54:24.107Z,19.17
2022-10-09T12:55:25.157Z,19.25
2022-10-09T12:56:24.091Z,18.94
2022-10-09T12:57:27.716Z,18.97
2022-10-09T12:58:24.853Z,19.10
2022-10-09T12:59:24.063Z,19.12
2022-10-09T13:00:24.049Z,19.10
2022-10-09T13:01:27.431Z,19.05
2022-10-09T13:02:24.332Z,18.82
2022-10-09T13:03:24.013Z,18.68
2022-10-09T13:04:24.838Z,18.91
2022-10-09T13:05:23.990Z,19.07
2022-10-09T13:06:23.976Z,19.21
2022-10-09T13:07:26.836Z,19.25
2022-10-09T13:08:23.972Z,19.30
2022-10-09T13:09:24.849Z,19.42
2022-10-09T13:10:23.932Z,19.46
2022-10-09T13:11:23.920Z,19.42